sensor_id;sensor_type;location;lat;lon;timestamp;P1;durP1;ratioP1;P2;durP2;ratioP2
45806;SDS011;31507;51.494;7.518;2022-12-07T00:01:18;110.40;;;57.10;;
45806;SDS011;31507;51.494;7.518;2022-12-07T00:03:48;113.60;;;57.13;;
45806;SDS011;31507;51.494;7.518;2022-12-07T00:06:15;109.78;;;57.05;;
45806;SDS011;31507;51.494;7.518;2022-12-07T00:08:41;103.63;;;56.20;;
45806;SDS011;31507;51.494;7.518;2022-12-07T00:11:09;108.85;;;58.15;;
45806;SDS011;31507;51.494;7.518;2022-12-07T00:13:37;110.20;;;57.97;;
45806;SDS011;31507;51.494;7.518;2022-12-07T00:16:04;104.93;;;57.60;;
45806;SDS011;31507;51.494;7.518;2022-12-07T00:18:32;107.05;;;58.03;;
45806;SDS011;31507;51.494;7.518;2022-12-07T00:21:01;103.15;;;57.88;;
45806;SDS011;31507;51.494;7.518;2022-12-07T00:23:31;111.50;;;57.50;;
45806;SDS011;31507;51.494;7.518;2022-12-07T00:26:03;117.25;;;59.95;;
45806;SDS011;31507;51.494;7.518;2022-12-07T00:28:33;104.03;;;57.35;;
45806;SDS011;31507;51.494;7.518;2022-12-07T00:31:09;113.05;;;60.30;;
45806;SDS011;31507;51.494;7.518;2022-12-07T00:33:37;110.05;;;57.45;;
45806;SDS011;31507;51.494;7.518;2022-12-07T00:36:04;109.18;;;57.28;;
45806;SDS011;31507;51.494;7.518;2022-12-07T00:38:32;102.97;;;56.17;;
45806;SDS011;31507;51.494;7.518;2022-12-07T00:41:00;104.40;;;57.47;;
45806;SDS011;31507;51.494;7.518;2022-12-07T00:43:28;96.78;;;54.45;;
45806;SDS011;31507;51.494;7.518;2022-12-07T00:45:54;104.20;;;54.92;;
45806;SDS011;31507;51.494;7.518;2022-12-07T00:48:20;107.97;;;55.05;;
45806;SDS011;31507;51.494;7.518;2022-12-07T00:50:46;97.45;;;55.08;;
45806;SDS011;31507;51.494;7.518;2022-12-07T00:53:12;96.40;;;51.90;;
45806;SDS011;31507;51.494;7.518;2022-12-07T00:55:38;92.30;;;54.00;;
45806;SDS011;31507;51.494;7.518;2022-12-07T00:58:03;94.70;;;54.47;;
45806;SDS011;31507;51.494;7.518;2022-12-07T01:00:29;103.25;;;54.17;;
45806;SDS011;31507;51.494;7.518;2022-12-07T01:02:55;93.65;;;53.50;;
45806;SDS011;31507;51.494;7.518;2022-12-07T01:05:21;92.60;;;53.00;;
45806;SDS011;31507;51.494;7.518;2022-12-07T01:07:46;88.68;;;51.17;;
45806;SDS011;31507;51.494;7.518;2022-12-07T01:10:13;92.47;;;52.97;;
45806;SDS011;31507;51.494;7.518;2022-12-07T01:12:39;91.60;;;52.25;;
45806;SDS011;31507;51.494;7.518;2022-12-07T01:15:05;88.95;;;52.60;;
45806;SDS011;31507;51.494;7.518;2022-12-07T01:17:32;86.90;;;49.63;;
45806;SDS011;31507;51.494;7.518;2022-12-07T01:19:57;82.57;;;49.13;;
45806;SDS011;31507;51.494;7.518;2022-12-07T01:22:23;85.90;;;49.95;;
45806;SDS011;31507;51.494;7.518;2022-12-07T01:24:48;82.40;;;47.55;;
45806;SDS011;31507;51.494;7.518;2022-12-07T01:27:14;74.30;;;46.45;;
45806;SDS011;31507;51.494;7.518;2022-12-07T01:29:40;73.97;;;46.17;;
45806;SDS011;31507;51.494;7.518;2022-12-07T01:32:06;74.15;;;45.58;;
45806;SDS011;31507;51.494;7.518;2022-12-07T01:34:31;77.35;;;46.78;;
45806;SDS011;31507;51.494;7.518;2022-12-07T01:36:57;78.68;;;47.70;;
45806;SDS011;31507;51.494;7.518;2022-12-07T01:39:23;77.10;;;47.38;;
45806;SDS011;31507;51.494;7.518;2022-12-07T01:41:49;76.88;;;47.05;;
45806;SDS011;31507;51.494;7.518;2022-12-07T01:46:55;83.68;;;48.22;;
45806;SDS011;31507;51.494;7.518;2022-12-07T01:54:40;94.05;;;50.17;;
45806;SDS011;31507;51.494;7.518;2022-12-07T01:57:07;83.63;;;51.08;;
45806;SDS011;31507;51.494;7.518;2022-12-07T01:59:34;82.30;;;50.45;;
45806;SDS011;31507;51.494;7.518;2022-12-07T02:02:00;83.38;;;51.50;;
45806;SDS011;31507;51.494;7.518;2022-12-07T02:04:30;87.22;;;52.03;;
45806;SDS011;31507;51.494;7.518;2022-12-07T02:06:56;79.65;;;50.28;;
45806;SDS011;31507;51.494;7.518;2022-12-07T02:09:22;80.70;;;50.97;;
45806;SDS011;31507;51.494;7.518;2022-12-07T02:11:48;87.80;;;50.90;;
45806;SDS011;31507;51.494;7.518;2022-12-07T02:14:15;84.75;;;48.97;;
45806;SDS011;31507;51.494;7.518;2022-12-07T02:16:47;85.32;;;49.70;;
45806;SDS011;31507;51.494;7.518;2022-12-07T02:19:35;86.85;;;49.80;;
45806;SDS011;31507;51.494;7.518;2022-12-07T02:25:24;82.32;;;49.15;;
45806;SDS011;31507;51.494;7.518;2022-12-07T02:30:28;87.43;;;49.92;;
45806;SDS011;31507;51.494;7.518;2022-12-07T02:32:59;79.28;;;46.72;;
45806;SDS011;31507;51.494;7.518;2022-12-07T02:35:39;80.82;;;47.88;;
45806;SDS011;31507;51.494;7.518;2022-12-07T02:38:11;76.13;;;47.95;;
45806;SDS011;31507;51.494;7.518;2022-12-07T02:43:26;79.00;;;48.55;;
45806;SDS011;31507;51.494;7.518;2022-12-07T02:46:01;73.57;;;45.70;;
45806;SDS011;31507;51.494;7.518;2022-12-07T02:48:31;80.43;;;45.67;;
45806;SDS011;31507;51.494;7.518;2022-12-07T02:50:58;75.25;;;46.30;;
45806;SDS011;31507;51.494;7.518;2022-12-07T02:53:40;68.85;;;44.92;;
45806;SDS011;31507;51.494;7.518;2022-12-07T03:09:53;63.85;;;42.20;;
45806;SDS011;31507;51.494;7.518;2022-12-07T03:12:29;66.30;;;40.88;;
45806;SDS011;31507;51.494;7.518;2022-12-07T03:15:05;70.35;;;40.58;;
45806;SDS011;31507;51.494;7.518;2022-12-07T03:17:39;65.45;;;40.80;;
45806;SDS011;31507;51.494;7.518;2022-12-07T03:20:07;68.47;;;41.35;;
45806;SDS011;31507;51.494;7.518;2022-12-07T03:22:36;64.82;;;39.78;;
45806;SDS011;31507;51.494;7.518;2022-12-07T03:25:06;72.93;;;42.00;;
45806;SDS011;31507;51.494;7.518;2022-12-07T03:30:12;73.07;;;43.40;;
45806;SDS011;31507;51.494;7.518;2022-12-07T03:32:49;79.45;;;44.13;;
45806;SDS011;31507;51.494;7.518;2022-12-07T03:38:00;71.78;;;42.55;;
45806;SDS011;31507;51.494;7.518;2022-12-07T03:40:48;74.80;;;41.95;;
45806;SDS011;31507;51.494;7.518;2022-12-07T03:43:33;64.28;;;38.45;;
45806;SDS011;31507;51.494;7.518;2022-12-07T03:48:44;67.95;;;39.45;;
45806;SDS011;31507;51.494;7.518;2022-12-07T03:51:28;66.80;;;39.17;;
45806;SDS011;31507;51.494;7.518;2022-12-07T03:54:21;64.78;;;38.50;;
45806;SDS011;31507;51.494;7.518;2022-12-07T03:56:57;66.70;;;39.92;;
45806;SDS011;31507;51.494;7.518;2022-12-07T03:59:24;68.78;;;38.42;;
45806;SDS011;31507;51.494;7.518;2022-12-07T04:01:57;64.55;;;39.78;;
45806;SDS011;31507;51.494;7.518;2022-12-07T04:04:27;73.63;;;42.83;;
45806;SDS011;31507;51.494;7.518;2022-12-07T04:06:53;79.93;;;44.97;;
45806;SDS011;31507;51.494;7.518;2022-12-07T04:09:19;82.95;;;46.45;;
45806;SDS011;31507;51.494;7.518;2022-12-07T04:11:45;79.97;;;44.10;;
45806;SDS011;31507;51.494;7.518;2022-12-07T04:14:11;83.57;;;45.60;;
45806;SDS011;31507;51.494;7.518;2022-12-07T04:16:50;91.65;;;50.33;;
45806;SDS011;31507;51.494;7.518;2022-12-07T04:19:18;102.13;;;49.33;;
45806;SDS011;31507;51.494;7.518;2022-12-07T04:21:45;103.28;;;52.80;;
45806;SDS011;31507;51.494;7.518;2022-12-07T04:24:12;101.47;;;52.60;;
45806;SDS011;31507;51.494;7.518;2022-12-07T04:26:38;106.22;;;53.47;;
45806;SDS011;31507;51.494;7.518;2022-12-07T04:29:04;109.13;;;53.22;;
45806;SDS011;31507;51.494;7.518;2022-12-07T04:31:30;101.38;;;50.25;;
45806;SDS011;31507;51.494;7.518;2022-12-07T04:33:56;99.85;;;50.95;;
45806;SDS011;31507;51.494;7.518;2022-12-07T04:36:21;86.45;;;48.53;;
45806;SDS011;31507;51.494;7.518;2022-12-07T04:38:47;86.30;;;47.67;;
45806;SDS011;31507;51.494;7.518;2022-12-07T04:41:13;86.03;;;46.58;;
45806;SDS011;31507;51.494;7.518;2022-12-07T04:43:39;82.32;;;44.25;;
45806;SDS011;31507;51.494;7.518;2022-12-07T04:46:04;86.45;;;44.47;;
45806;SDS011;31507;51.494;7.518;2022-12-07T04:48:30;85.97;;;44.17;;
45806;SDS011;31507;51.494;7.518;2022-12-07T04:50:56;90.75;;;45.88;;
45806;SDS011;31507;51.494;7.518;2022-12-07T04:53:21;89.35;;;45.50;;
45806;SDS011;31507;51.494;7.518;2022-12-07T04:55:47;85.32;;;45.53;;
45806;SDS011;31507;51.494;7.518;2022-12-07T04:58:13;83.45;;;45.03;;
45806;SDS011;31507;51.494;7.518;2022-12-07T05:00:39;80.22;;;43.88;;
45806;SDS011;31507;51.494;7.518;2022-12-07T05:03:05;83.43;;;43.40;;
45806;SDS011;31507;51.494;7.518;2022-12-07T05:05:31;88.22;;;43.28;;
45806;SDS011;31507;51.494;7.518;2022-12-07T05:07:56;83.35;;;42.60;;
45806;SDS011;31507;51.494;7.518;2022-12-07T05:10:22;75.97;;;42.13;;
45806;SDS011;31507;51.494;7.518;2022-12-07T05:12:48;82.30;;;42.40;;
45806;SDS011;31507;51.494;7.518;2022-12-07T05:15:14;69.22;;;41.10;;
45806;SDS011;31507;51.494;7.518;2022-12-07T05:17:40;79.18;;;41.47;;
45806;SDS011;31507;51.494;7.518;2022-12-07T05:20:06;75.85;;;41.92;;
45806;SDS011;31507;51.494;7.518;2022-12-07T05:22:33;77.63;;;41.55;;
45806;SDS011;31507;51.494;7.518;2022-12-07T05:24:58;82.22;;;42.10;;
45806;SDS011;31507;51.494;7.518;2022-12-07T05:27:24;87.13;;;42.03;;
45806;SDS011;31507;51.494;7.518;2022-12-07T05:29:50;78.93;;;40.38;;
45806;SDS011;31507;51.494;7.518;2022-12-07T05:32:16;79.72;;;40.67;;
45806;SDS011;31507;51.494;7.518;2022-12-07T05:34:42;71.20;;;39.65;;
45806;SDS011;31507;51.494;7.518;2022-12-07T05:37:08;80.20;;;39.95;;
45806;SDS011;31507;51.494;7.518;2022-12-07T05:39:33;79.55;;;39.50;;
45806;SDS011;31507;51.494;7.518;2022-12-07T05:41:59;70.63;;;38.78;;
45806;SDS011;31507;51.494;7.518;2022-12-07T05:44:37;74.32;;;38.42;;
45806;SDS011;31507;51.494;7.518;2022-12-07T05:47:03;76.30;;;38.83;;
45806;SDS011;31507;51.494;7.518;2022-12-07T05:49:29;87.72;;;44.08;;
45806;SDS011;31507;51.494;7.518;2022-12-07T05:51:55;91.32;;;45.35;;
45806;SDS011;31507;51.494;7.518;2022-12-07T05:54:20;89.05;;;44.15;;
45806;SDS011;31507;51.494;7.518;2022-12-07T05:56:46;88.97;;;44.15;;
45806;SDS011;31507;51.494;7.518;2022-12-07T05:59:12;89.45;;;44.65;;
45806;SDS011;31507;51.494;7.518;2022-12-07T06:01:56;103.28;;;45.58;;
45806;SDS011;31507;51.494;7.518;2022-12-07T06:04:24;84.97;;;43.75;;
45806;SDS011;31507;51.494;7.518;2022-12-07T06:06:52;86.68;;;44.35;;
45806;SDS011;31507;51.494;7.518;2022-12-07T06:09:18;83.88;;;42.50;;
45806;SDS011;31507;51.494;7.518;2022-12-07T06:11:45;80.45;;;42.78;;
45806;SDS011;31507;51.494;7.518;2022-12-07T06:14:29;86.32;;;42.60;;
45806;SDS011;31507;51.494;7.518;2022-12-07T06:16:55;84.60;;;41.65;;
45806;SDS011;31507;51.494;7.518;2022-12-07T06:19:20;88.03;;;42.00;;
45806;SDS011;31507;51.494;7.518;2022-12-07T06:21:46;80.57;;;42.35;;
45806;SDS011;31507;51.494;7.518;2022-12-07T06:24:12;88.70;;;40.65;;
45806;SDS011;31507;51.494;7.518;2022-12-07T06:26:39;90.43;;;42.78;;
45806;SDS011;31507;51.494;7.518;2022-12-07T06:29:05;83.47;;;41.05;;
45806;SDS011;31507;51.494;7.518;2022-12-07T06:31:31;79.80;;;39.63;;
45806;SDS011;31507;51.494;7.518;2022-12-07T06:33:58;75.55;;;40.05;;
45806;SDS011;31507;51.494;7.518;2022-12-07T06:36:24;72.32;;;37.78;;
45806;SDS011;31507;51.494;7.518;2022-12-07T06:38:50;75.38;;;37.60;;
45806;SDS011;31507;51.494;7.518;2022-12-07T06:41:16;76.47;;;38.67;;
45806;SDS011;31507;51.494;7.518;2022-12-07T06:43:41;72.47;;;36.67;;
45806;SDS011;31507;51.494;7.518;2022-12-07T06:46:07;70.13;;;36.72;;
45806;SDS011;31507;51.494;7.518;2022-12-07T06:48:33;70.35;;;35.17;;
45806;SDS011;31507;51.494;7.518;2022-12-07T06:50:58;74.65;;;35.85;;
45806;SDS011;31507;51.494;7.518;2022-12-07T06:53:24;68.00;;;36.08;;
45806;SDS011;31507;51.494;7.518;2022-12-07T06:55:50;65.50;;;35.80;;
45806;SDS011;31507;51.494;7.518;2022-12-07T06:58:16;62.45;;;34.15;;
45806;SDS011;31507;51.494;7.518;2022-12-07T07:00:42;71.43;;;36.22;;
45806;SDS011;31507;51.494;7.518;2022-12-07T07:03:09;69.10;;;35.42;;
45806;SDS011;31507;51.494;7.518;2022-12-07T07:05:34;65.13;;;33.42;;
45806;SDS011;31507;51.494;7.518;2022-12-07T07:08:01;58.60;;;32.42;;
45806;SDS011;31507;51.494;7.518;2022-12-07T07:10:27;66.32;;;33.60;;
45806;SDS011;31507;51.494;7.518;2022-12-07T07:12:53;65.22;;;33.47;;
45806;SDS011;31507;51.494;7.518;2022-12-07T07:15:19;71.45;;;32.55;;
45806;SDS011;31507;51.494;7.518;2022-12-07T07:17:44;67.13;;;34.08;;
45806;SDS011;31507;51.494;7.518;2022-12-07T07:20:10;74.00;;;35.85;;
45806;SDS011;31507;51.494;7.518;2022-12-07T07:22:36;84.40;;;37.88;;
45806;SDS011;31507;51.494;7.518;2022-12-07T07:25:02;81.13;;;40.03;;
45806;SDS011;31507;51.494;7.518;2022-12-07T07:27:28;74.60;;;37.85;;
45806;SDS011;31507;51.494;7.518;2022-12-07T07:29:53;74.75;;;39.03;;
45806;SDS011;31507;51.494;7.518;2022-12-07T07:32:19;76.38;;;38.67;;
45806;SDS011;31507;51.494;7.518;2022-12-07T07:34:46;76.57;;;36.97;;
45806;SDS011;31507;51.494;7.518;2022-12-07T07:37:12;75.25;;;35.83;;
45806;SDS011;31507;51.494;7.518;2022-12-07T07:39:38;69.13;;;33.13;;
45806;SDS011;31507;51.494;7.518;2022-12-07T07:42:04;62.95;;;32.38;;
45806;SDS011;31507;51.494;7.518;2022-12-07T07:44:29;61.33;;;29.73;;
45806;SDS011;31507;51.494;7.518;2022-12-07T07:46:55;66.72;;;31.73;;
45806;SDS011;31507;51.494;7.518;2022-12-07T07:49:21;62.72;;;31.20;;
45806;SDS011;31507;51.494;7.518;2022-12-07T07:51:46;66.38;;;32.47;;
45806;SDS011;31507;51.494;7.518;2022-12-07T07:54:12;68.30;;;29.75;;
45806;SDS011;31507;51.494;7.518;2022-12-07T07:56:37;52.53;;;27.95;;
45806;SDS011;31507;51.494;7.518;2022-12-07T07:59:03;65.82;;;30.02;;
45806;SDS011;31507;51.494;7.518;2022-12-07T08:01:28;56.42;;;27.42;;
45806;SDS011;31507;51.494;7.518;2022-12-07T08:03:54;54.28;;;27.98;;
45806;SDS011;31507;51.494;7.518;2022-12-07T08:06:20;56.88;;;27.92;;
45806;SDS011;31507;51.494;7.518;2022-12-07T08:08:45;62.45;;;28.63;;
45806;SDS011;31507;51.494;7.518;2022-12-07T08:11:11;54.10;;;27.38;;
45806;SDS011;31507;51.494;7.518;2022-12-07T08:13:37;57.10;;;27.13;;
45806;SDS011;31507;51.494;7.518;2022-12-07T08:16:03;48.72;;;25.30;;
45806;SDS011;31507;51.494;7.518;2022-12-07T08:18:37;56.65;;;25.90;;
45806;SDS011;31507;51.494;7.518;2022-12-07T08:21:04;46.85;;;24.85;;
45806;SDS011;31507;51.494;7.518;2022-12-07T08:23:30;51.58;;;25.58;;
45806;SDS011;31507;51.494;7.518;2022-12-07T08:26:00;49.13;;;24.52;;
45806;SDS011;31507;51.494;7.518;2022-12-07T08:28:26;52.28;;;23.95;;
45806;SDS011;31507;51.494;7.518;2022-12-07T08:30:57;48.42;;;22.65;;
45806;SDS011;31507;51.494;7.518;2022-12-07T08:33:24;37.97;;;20.10;;
45806;SDS011;31507;51.494;7.518;2022-12-07T08:35:50;39.35;;;20.52;;
45806;SDS011;31507;51.494;7.518;2022-12-07T08:38:16;33.97;;;18.85;;
45806;SDS011;31507;51.494;7.518;2022-12-07T08:40:42;38.45;;;18.35;;
45806;SDS011;31507;51.494;7.518;2022-12-07T08:43:07;37.28;;;18.42;;
45806;SDS011;31507;51.494;7.518;2022-12-07T08:45:33;33.42;;;16.40;;
45806;SDS011;31507;51.494;7.518;2022-12-07T08:48:10;34.83;;;16.10;;
45806;SDS011;31507;51.494;7.518;2022-12-07T08:50:38;28.15;;;15.07;;
45806;SDS011;31507;51.494;7.518;2022-12-07T08:53:04;22.63;;;13.90;;
45806;SDS011;31507;51.494;7.518;2022-12-07T08:55:31;25.00;;;13.60;;
45806;SDS011;31507;51.494;7.518;2022-12-07T08:57:59;25.52;;;13.40;;
45806;SDS011;31507;51.494;7.518;2022-12-07T09:00:27;24.17;;;12.45;;
45806;SDS011;31507;51.494;7.518;2022-12-07T09:02:53;29.00;;;12.35;;
45806;SDS011;31507;51.494;7.518;2022-12-07T09:05:19;23.63;;;11.77;;
45806;SDS011;31507;51.494;7.518;2022-12-07T09:07:46;21.45;;;12.20;;
45806;SDS011;31507;51.494;7.518;2022-12-07T09:10:14;20.50;;;11.18;;
45806;SDS011;31507;51.494;7.518;2022-12-07T09:12:39;26.60;;;11.35;;
45806;SDS011;31507;51.494;7.518;2022-12-07T09:15:05;23.60;;;10.43;;
45806;SDS011;31507;51.494;7.518;2022-12-07T09:17:33;25.50;;;11.18;;
45806;SDS011;31507;51.494;7.518;2022-12-07T09:19:59;20.67;;;11.05;;
45806;SDS011;31507;51.494;7.518;2022-12-07T09:22:28;25.85;;;10.25;;
45806;SDS011;31507;51.494;7.518;2022-12-07T09:24:57;23.10;;;10.48;;
45806;SDS011;31507;51.494;7.518;2022-12-07T09:27:23;18.45;;;10.02;;
45806;SDS011;31507;51.494;7.518;2022-12-07T09:29:49;25.45;;;10.65;;
45806;SDS011;31507;51.494;7.518;2022-12-07T09:32:15;24.42;;;11.57;;
45806;SDS011;31507;51.494;7.518;2022-12-07T09:34:41;29.50;;;12.32;;
45806;SDS011;31507;51.494;7.518;2022-12-07T09:37:06;28.20;;;11.15;;
45806;SDS011;31507;51.494;7.518;2022-12-07T09:39:32;25.30;;;10.52;;
45806;SDS011;31507;51.494;7.518;2022-12-07T09:41:58;22.60;;;11.05;;
45806;SDS011;31507;51.494;7.518;2022-12-07T09:44:27;25.45;;;11.05;;
45806;SDS011;31507;51.494;7.518;2022-12-07T09:46:53;23.60;;;12.20;;
45806;SDS011;31507;51.494;7.518;2022-12-07T09:49:21;25.23;;;12.02;;
45806;SDS011;31507;51.494;7.518;2022-12-07T09:51:55;28.65;;;12.38;;
45806;SDS011;31507;51.494;7.518;2022-12-07T09:54:34;29.30;;;12.85;;
45806;SDS011;31507;51.494;7.518;2022-12-07T09:57:11;27.60;;;12.80;;
45806;SDS011;31507;51.494;7.518;2022-12-07T09:59:37;22.40;;;11.85;;
45806;SDS011;31507;51.494;7.518;2022-12-07T10:04:57;24.50;;;11.05;;
45806;SDS011;31507;51.494;7.518;2022-12-07T10:07:23;25.70;;;12.43;;
45806;SDS011;31507;51.494;7.518;2022-12-07T10:09:49;27.30;;;11.88;;
45806;SDS011;31507;51.494;7.518;2022-12-07T10:12:15;26.95;;;12.80;;
45806;SDS011;31507;51.494;7.518;2022-12-07T10:14:52;27.30;;;13.27;;
45806;SDS011;31507;51.494;7.518;2022-12-07T10:20:11;19.30;;;11.45;;
45806;SDS011;31507;51.494;7.518;2022-12-07T10:25:29;22.58;;;11.60;;
45806;SDS011;31507;51.494;7.518;2022-12-07T10:28:34;24.15;;;12.02;;
45806;SDS011;31507;51.494;7.518;2022-12-07T10:31:02;26.90;;;12.15;;
45806;SDS011;31507;51.494;7.518;2022-12-07T10:33:53;23.05;;;12.88;;
45806;SDS011;31507;51.494;7.518;2022-12-07T10:36:31;28.75;;;13.70;;
45806;SDS011;31507;51.494;7.518;2022-12-07T10:39:00;21.40;;;12.52;;
45806;SDS011;31507;51.494;7.518;2022-12-07T10:41:34;27.25;;;14.05;;
45806;SDS011;31507;51.494;7.518;2022-12-07T10:43:59;27.67;;;14.60;;
45806;SDS011;31507;51.494;7.518;2022-12-07T10:51:55;22.45;;;13.93;;
45806;SDS011;31507;51.494;7.518;2022-12-07T11:00:21;25.17;;;13.55;;
45806;SDS011;31507;51.494;7.518;2022-12-07T11:05:37;24.23;;;13.43;;
45806;SDS011;31507;51.494;7.518;2022-12-07T11:08:40;25.27;;;12.77;;
45806;SDS011;31507;51.494;7.518;2022-12-07T11:21:45;20.60;;;11.27;;
45806;SDS011;31507;51.494;7.518;2022-12-07T11:24:32;26.23;;;11.45;;
45806;SDS011;31507;51.494;7.518;2022-12-07T11:30:20;15.93;;;9.40;;
45806;SDS011;31507;51.494;7.518;2022-12-07T11:39:03;21.08;;;8.23;;
45806;SDS011;31507;51.494;7.518;2022-12-07T11:41:37;18.30;;;7.47;;
45806;SDS011;31507;51.494;7.518;2022-12-07T11:44:07;23.67;;;7.25;;
45806;SDS011;31507;51.494;7.518;2022-12-07T11:46:54;18.98;;;7.63;;
45806;SDS011;31507;51.494;7.518;2022-12-07T11:55:14;16.77;;;8.05;;
45806;SDS011;31507;51.494;7.518;2022-12-07T12:03:52;19.17;;;8.38;;
45806;SDS011;31507;51.494;7.518;2022-12-07T12:06:23;19.27;;;8.00;;
45806;SDS011;31507;51.494;7.518;2022-12-07T12:12:07;17.83;;;8.95;;
45806;SDS011;31507;51.494;7.518;2022-12-07T12:22:50;17.45;;;6.90;;
45806;SDS011;31507;51.494;7.518;2022-12-07T12:25:24;19.98;;;7.22;;
45806;SDS011;31507;51.494;7.518;2022-12-07T12:27:54;12.77;;;5.65;;
45806;SDS011;31507;51.494;7.518;2022-12-07T12:30:24;16.40;;;5.75;;
45806;SDS011;31507;51.494;7.518;2022-12-07T12:33:06;16.15;;;5.63;;
45806;SDS011;31507;51.494;7.518;2022-12-07T12:35:46;17.85;;;5.53;;
45806;SDS011;31507;51.494;7.518;2022-12-07T12:56:55;16.17;;;4.07;;
45806;SDS011;31507;51.494;7.518;2022-12-07T12:59:30;12.68;;;3.90;;
45806;SDS011;31507;51.494;7.518;2022-12-07T13:15:41;15.20;;;3.97;;
45806;SDS011;31507;51.494;7.518;2022-12-07T13:21:01;12.95;;;3.67;;
45806;SDS011;31507;51.494;7.518;2022-12-07T13:28:32;14.75;;;3.90;;
45806;SDS011;31507;51.494;7.518;2022-12-07T13:33:45;16.23;;;3.80;;
45806;SDS011;31507;51.494;7.518;2022-12-07T13:36:33;19.00;;;4.15;;
45806;SDS011;31507;51.494;7.518;2022-12-07T13:39:10;11.10;;;3.33;;
45806;SDS011;31507;51.494;7.518;2022-12-07T13:41:41;11.75;;;3.55;;
45806;SDS011;31507;51.494;7.518;2022-12-07T13:44:12;14.05;;;2.85;;
45806;SDS011;31507;51.494;7.518;2022-12-07T13:46:52;7.97;;;2.60;;
45806;SDS011;31507;51.494;7.518;2022-12-07T13:49:21;12.68;;;2.92;;
45806;SDS011;31507;51.494;7.518;2022-12-07T13:51:53;12.82;;;2.50;;
45806;SDS011;31507;51.494;7.518;2022-12-07T13:54:20;17.08;;;3.60;;
45806;SDS011;31507;51.494;7.518;2022-12-07T13:56:48;16.70;;;2.92;;
45806;SDS011;31507;51.494;7.518;2022-12-07T13:59:17;12.98;;;2.67;;
45806;SDS011;31507;51.494;7.518;2022-12-07T14:01:44;9.95;;;2.90;;
45806;SDS011;31507;51.494;7.518;2022-12-07T14:04:28;13.45;;;3.13;;
45806;SDS011;31507;51.494;7.518;2022-12-07T14:06:54;11.82;;;3.67;;
45806;SDS011;31507;51.494;7.518;2022-12-07T14:09:21;12.32;;;3.08;;
45806;SDS011;31507;51.494;7.518;2022-12-07T14:11:49;13.18;;;3.08;;
45806;SDS011;31507;51.494;7.518;2022-12-07T14:14:21;14.82;;;3.65;;
45806;SDS011;31507;51.494;7.518;2022-12-07T14:19:56;12.57;;;3.75;;
45806;SDS011;31507;51.494;7.518;2022-12-07T14:22:43;15.45;;;3.50;;
45806;SDS011;31507;51.494;7.518;2022-12-07T14:27:50;13.50;;;4.20;;
45806;SDS011;31507;51.494;7.518;2022-12-07T14:30:20;14.95;;;4.32;;
45806;SDS011;31507;51.494;7.518;2022-12-07T14:32:48;20.85;;;3.90;;
45806;SDS011;31507;51.494;7.518;2022-12-07T14:35:17;20.02;;;3.67;;
45806;SDS011;31507;51.494;7.518;2022-12-07T14:37:45;16.42;;;3.40;;
45806;SDS011;31507;51.494;7.518;2022-12-07T14:40:13;12.65;;;3.63;;
45806;SDS011;31507;51.494;7.518;2022-12-07T14:42:41;7.65;;;3.08;;
45806;SDS011;31507;51.494;7.518;2022-12-07T14:45:13;11.05;;;3.05;;
45806;SDS011;31507;51.494;7.518;2022-12-07T14:47:40;14.55;;;3.75;;
45806;SDS011;31507;51.494;7.518;2022-12-07T14:50:06;6.40;;;3.20;;
45806;SDS011;31507;51.494;7.518;2022-12-07T14:52:33;10.45;;;3.50;;
45806;SDS011;31507;51.494;7.518;2022-12-07T14:54:58;10.65;;;2.70;;
45806;SDS011;31507;51.494;7.518;2022-12-07T14:57:24;12.00;;;2.95;;
45806;SDS011;31507;51.494;7.518;2022-12-07T14:59:49;6.65;;;2.55;;
45806;SDS011;31507;51.494;7.518;2022-12-07T15:02:15;6.65;;;2.70;;
45806;SDS011;31507;51.494;7.518;2022-12-07T15:04:41;14.80;;;6.78;;
45806;SDS011;31507;51.494;7.518;2022-12-07T15:07:10;20.05;;;9.75;;
45806;SDS011;31507;51.494;7.518;2022-12-07T15:09:41;23.52;;;8.13;;
45806;SDS011;31507;51.494;7.518;2022-12-07T15:12:07;7.55;;;3.50;;
45806;SDS011;31507;51.494;7.518;2022-12-07T15:14:32;6.13;;;2.88;;
45806;SDS011;31507;51.494;7.518;2022-12-07T15:16:58;11.68;;;3.95;;
45806;SDS011;31507;51.494;7.518;2022-12-07T15:19:24;11.35;;;4.15;;
45806;SDS011;31507;51.494;7.518;2022-12-07T15:21:53;7.78;;;2.97;;
45806;SDS011;31507;51.494;7.518;2022-12-07T15:24:18;7.90;;;4.30;;
45806;SDS011;31507;51.494;7.518;2022-12-07T15:26:44;13.70;;;3.85;;
45806;SDS011;31507;51.494;7.518;2022-12-07T15:29:10;12.05;;;4.30;;
45806;SDS011;31507;51.494;7.518;2022-12-07T15:31:37;10.52;;;4.15;;
45806;SDS011;31507;51.494;7.518;2022-12-07T15:34:03;10.02;;;4.35;;
45806;SDS011;31507;51.494;7.518;2022-12-07T15:36:30;15.35;;;4.93;;
45806;SDS011;31507;51.494;7.518;2022-12-07T15:38:57;12.50;;;4.45;;
45806;SDS011;31507;51.494;7.518;2022-12-07T15:41:23;12.40;;;4.63;;
45806;SDS011;31507;51.494;7.518;2022-12-07T15:43:49;13.95;;;4.65;;
45806;SDS011;31507;51.494;7.518;2022-12-07T15:46:34;17.33;;;5.38;;
45806;SDS011;31507;51.494;7.518;2022-12-07T15:49:02;14.57;;;5.13;;
45806;SDS011;31507;51.494;7.518;2022-12-07T15:51:29;16.52;;;4.97;;
45806;SDS011;31507;51.494;7.518;2022-12-07T15:53:55;16.75;;;6.70;;
45806;SDS011;31507;51.494;7.518;2022-12-07T15:56:22;20.42;;;7.53;;
45806;SDS011;31507;51.494;7.518;2022-12-07T15:58:48;22.55;;;8.55;;
45806;SDS011;31507;51.494;7.518;2022-12-07T16:01:15;27.13;;;8.90;;
45806;SDS011;31507;51.494;7.518;2022-12-07T16:03:42;23.02;;;9.73;;
45806;SDS011;31507;51.494;7.518;2022-12-07T16:06:08;20.02;;;8.57;;
45806;SDS011;31507;51.494;7.518;2022-12-07T16:08:34;24.10;;;8.68;;
45806;SDS011;31507;51.494;7.518;2022-12-07T16:11:04;19.45;;;9.70;;
45806;SDS011;31507;51.494;7.518;2022-12-07T16:13:31;19.90;;;9.15;;
45806;SDS011;31507;51.494;7.518;2022-12-07T16:15:56;22.60;;;10.32;;
45806;SDS011;31507;51.494;7.518;2022-12-07T16:18:22;17.45;;;9.90;;
45806;SDS011;31507;51.494;7.518;2022-12-07T16:20:48;21.98;;;10.82;;
45806;SDS011;31507;51.494;7.518;2022-12-07T16:23:14;24.70;;;11.57;;
45806;SDS011;31507;51.494;7.518;2022-12-07T16:25:40;25.90;;;13.38;;
45806;SDS011;31507;51.494;7.518;2022-12-07T16:28:05;24.63;;;10.98;;
45806;SDS011;31507;51.494;7.518;2022-12-07T16:30:31;22.60;;;10.57;;
45806;SDS011;31507;51.494;7.518;2022-12-07T16:32:57;23.65;;;11.20;;
45806;SDS011;31507;51.494;7.518;2022-12-07T16:35:22;21.73;;;11.50;;
45806;SDS011;31507;51.494;7.518;2022-12-07T16:37:48;20.08;;;10.70;;
45806;SDS011;31507;51.494;7.518;2022-12-07T16:40:13;21.80;;;10.93;;
45806;SDS011;31507;51.494;7.518;2022-12-07T16:42:39;24.10;;;10.13;;
45806;SDS011;31507;51.494;7.518;2022-12-07T16:45:05;27.80;;;11.68;;
45806;SDS011;31507;51.494;7.518;2022-12-07T16:47:31;26.65;;;12.68;;
45806;SDS011;31507;51.494;7.518;2022-12-07T16:49:56;31.60;;;13.57;;
45806;SDS011;31507;51.494;7.518;2022-12-07T16:52:22;31.55;;;13.55;;
45806;SDS011;31507;51.494;7.518;2022-12-07T16:54:48;20.05;;;10.30;;
45806;SDS011;31507;51.494;7.518;2022-12-07T16:57:15;21.35;;;10.45;;
45806;SDS011;31507;51.494;7.518;2022-12-07T16:59:41;28.88;;;10.45;;
45806;SDS011;31507;51.494;7.518;2022-12-07T17:02:08;23.10;;;9.48;;
45806;SDS011;31507;51.494;7.518;2022-12-07T17:04:37;22.48;;;9.70;;